Mannville, Canada
Current Conditions -  °F | °C
As of 2:00 PM on Wednesday 26 Nov 2014 (Local Time) from CYLL Reporting Station
Light Snow Light Snow  
Wind Chill: -6°   Ceiling: 2400
Heat Index:   Visibility: 15mi
Dew Point:   Wind: 8mph
Humidity: 85%   Direction: 130°SE
Pressure: 30.21"   Gusts: NA
Location:  53.33°N, 111.17°W
Report Text: CYLL 262100Z 13007KT 15SM -SN OVC024 M14/M16 A3021 RMK SC8 SLP292
Loading
Personal Weather Stations






























Interactive Weather Map New forecast layout! Learn more

10-Day Weather Forecast

Advertisements
Track Severe Weather on mobile